Terminal Aerodrome Forecast
Issued by NWS Jackson, KY

Current Version | Previous Version | Text Only | Print | Product List | Glossary On
Versions: 1 2 3 4 5 6 7 8 9 10 11 12 13 14 15
000
FTUS43 KJKL 282300
TAFLOZ
TAF
KLOZ 282335Z 2900/2924 34007KT P6SM FEW025 BKN080
     FM290600 VRB03KT P6SM SCT015 OVC025
     FM290900 00000KT 3SM BR SCT007 OVC015
     FM291100 30003KT 1SM BR OVC007
     FM291300 31005KT 6SM BR FEW007 BKN025
     FM291400 33007KT P6SM FEW025 BKN050=

USA.gov is the U.S. government's official web portal to all federal, state and local government web resources and services.